createdAt,value
2023-01-06T00:00:28.376Z,3.83
2023-01-06T00:02:55.893Z,4.10
2023-01-06T00:05:23.792Z,3.60
2023-01-06T00:07:51.412Z,3.80
2023-01-06T00:10:19.215Z,3.50
2023-01-06T00:12:46.826Z,3.50
2023-01-06T00:15:14.644Z,3.60
2023-01-06T00:17:43.444Z,3.50
2023-01-06T00:20:12.138Z,3.50
2023-01-06T00:22:40.160Z,3.40
2023-01-06T00:25:10.072Z,3.33
2023-01-06T00:27:37.584Z,3.40
2023-01-06T00:30:05.849Z,3.33
2023-01-06T00:32:33.333Z,3.73
2023-01-06T00:35:02.138Z,3.87
2023-01-06T00:37:29.650Z,3.70
2023-01-06T00:39:57.098Z,3.10
2023-01-06T00:42:25.050Z,2.80
2023-01-06T00:44:52.787Z,3.33
2023-01-06T00:47:21.521Z,3.40
2023-01-06T00:49:49.311Z,3.30
2023-01-06T00:52:18.160Z,3.33
2023-01-06T00:54:45.651Z,3.30
2023-01-06T00:57:13.114Z,2.90
2023-01-06T00:59:42.076Z,3.07
2023-01-06T01:02:09.715Z,3.10
2023-01-06T01:04:37.248Z,3.13
2023-01-06T01:07:04.812Z,3.20
2023-01-06T01:09:33.913Z,3.00
2023-01-06T01:12:14.113Z,3.17
2023-01-06T01:14:42.953Z,3.30
2023-01-06T01:17:11.515Z,4.10
2023-01-06T01:19:39.728Z,3.57
2023-01-06T01:22:07.588Z,3.20
2023-01-06T01:24:38.396Z,3.10
2023-01-06T01:27:06.098Z,3.33
2023-01-06T01:29:33.742Z,3.03
2023-01-06T01:32:01.591Z,3.00
2023-01-06T01:34:29.328Z,3.00
2023-01-06T01:36:57.566Z,3.37
2023-01-06T01:39:26.116Z,3.20
2023-01-06T01:41:55.500Z,3.30
2023-01-06T01:44:41.557Z,3.10
2023-01-06T01:47:09.535Z,3.20
2023-01-06T01:49:37.995Z,3.67
2023-01-06T01:52:06.251Z,3.27
2023-01-06T01:54:35.160Z,2.97
2023-01-06T01:57:06.326Z,3.47
2023-01-06T01:59:35.207Z,3.30
2023-01-06T02:02:03.183Z,3.20
2023-01-06T02:04:34.131Z,3.53
2023-01-06T02:07:02.139Z,3.23
2023-01-06T02:09:32.821Z,3.47
2023-01-06T02:12:00.262Z,3.20
2023-01-06T02:14:29.773Z,3.10
2023-01-06T02:17:15.130Z,3.30
2023-01-06T02:19:54.710Z,3.30
2023-01-06T02:22:32.720Z,2.90
2023-01-06T02:25:14.006Z,3.13
2023-01-06T02:27:56.571Z,2.90
2023-01-06T02:30:42.871Z,3.50
2023-01-06T02:33:14.907Z,3.70
2023-01-06T02:35:55.258Z,2.97
2023-01-06T02:38:29.327Z,3.10
2023-01-06T02:41:09.635Z,2.60
2023-01-06T02:43:44.759Z,3.00
2023-01-06T02:46:17.358Z,2.60
2023-01-06T02:48:52.140Z,2.80
2023-01-06T02:51:22.197Z,2.77
2023-01-06T02:53:53.388Z,2.70
2023-01-06T02:56:23.018Z,2.97
2023-01-06T02:58:54.910Z,2.73
2023-01-06T03:01:24.733Z,2.50
2023-01-06T03:03:54.313Z,2.90
2023-01-06T03:06:26.256Z,2.90
2023-01-06T03:08:56.152Z,2.67
2023-01-06T03:11:25.273Z,2.80
2023-01-06T03:13:56.395Z,2.70
2023-01-06T03:16:24.502Z,2.73
2023-01-06T03:18:53.920Z,2.63
2023-01-06T03:21:25.374Z,2.73
2023-01-06T03:23:53.183Z,2.60
2023-01-06T03:26:20.767Z,2.70
2023-01-06T03:28:48.358Z,2.80
2023-01-06T03:31:23.721Z,2.70
2023-01-06T03:33:57.622Z,2.50
2023-01-06T03:36:30.798Z,2.43
2023-01-06T03:39:02.834Z,2.57
2023-01-06T03:41:46.918Z,2.40
2023-01-06T03:44:16.444Z,2.70
2023-01-06T03:46:49.322Z,2.43
2023-01-06T03:49:20.184Z,3.20
2023-01-06T03:51:49.497Z,3.10
2023-01-06T03:54:23.440Z,2.77
2023-01-06T03:56:52.546Z,2.70
2023-01-06T03:59:22.112Z,3.07
2023-01-06T04:01:51.570Z,2.80
2023-01-06T04:04:21.845Z,2.87
2023-01-06T04:06:49.520Z,2.70
2023-01-06T04:09:17.392Z,3.20
2023-01-06T04:12:03.341Z,3.33
2023-01-06T04:14:33.942Z,3.57
2023-01-06T04:17:02.820Z,3.80
2023-01-06T04:19:31.835Z,3.87
2023-01-06T04:21:59.423Z,3.03
2023-01-06T04:24:29.970Z,3.60
2023-01-06T04:26:57.810Z,4.17
2023-01-06T04:29:25.340Z,3.80
2023-01-06T04:31:55.458Z,3.87
2023-01-06T04:34:23.078Z,4.07
2023-01-06T04:36:51.929Z,3.90
2023-01-06T04:39:19.480Z,4.80
2023-01-06T04:41:46.939Z,4.40
2023-01-06T04:44:14.405Z,3.80
2023-01-06T04:46:41.832Z,4.40
2023-01-06T04:49:09.526Z,4.33
2023-01-06T04:51:37.054Z,4.37
2023-01-06T04:54:05.973Z,5.03
2023-01-06T04:56:33.713Z,5.00
2023-01-06T04:59:01.812Z,5.07
2023-01-06T05:01:29.453Z,4.97
2023-01-06T05:03:57.009Z,5.73
2023-01-06T05:06:24.665Z,5.40
2023-01-06T05:08:52.167Z,6.17
2023-01-06T05:11:22.248Z,6.30
2023-01-06T05:13:49.979Z,6.27
2023-01-06T05:16:19.048Z,6.30
2023-01-06T05:18:46.518Z,6.13
2023-01-06T05:21:14.044Z,6.90
2023-01-06T05:23:41.643Z,6.30
2023-01-06T05:26:10.534Z,6.20
2023-01-06T05:28:39.367Z,5.90
2023-01-06T05:31:07.084Z,5.80
2023-01-06T05:33:34.699Z,6.20
2023-01-06T05:36:02.733Z,5.17
2023-01-06T05:38:30.169Z,4.80
2023-01-06T05:40:57.911Z,4.73
2023-01-06T05:43:25.636Z,4.40
2023-01-06T05:45:54.525Z,4.33
2023-01-06T05:48:22.128Z,4.10
2023-01-06T05:50:49.562Z,4.23
2023-01-06T05:53:17.016Z,4.30
2023-01-06T05:55:44.457Z,4.10
2023-01-06T05:58:11.937Z,3.83
2023-01-06T06:00:39.375Z,4.23
2023-01-06T06:03:08.161Z,4.20
2023-01-06T06:05:35.641Z,3.80
2023-01-06T06:08:03.223Z,3.60
2023-01-06T06:10:30.633Z,3.50
2023-01-06T06:12:58.066Z,3.30
2023-01-06T06:15:25.519Z,3.17
2023-01-06T06:17:52.976Z,3.53
2023-01-06T06:20:21.812Z,3.70
2023-01-06T06:22:49.299Z,4.00
2023-01-06T06:25:16.903Z,3.80
2023-01-06T06:27:44.348Z,3.80
2023-01-06T06:30:12.101Z,3.70
2023-01-06T06:32:39.553Z,3.90
2023-01-06T06:35:07.618Z,3.40
2023-01-06T06:37:36.446Z,3.43
2023-01-06T06:40:04.176Z,3.50
2023-01-06T06:42:31.631Z,3.60
2023-01-06T06:44:59.119Z,3.53
2023-01-06T06:47:26.582Z,3.30
2023-01-06T06:49:54.046Z,3.73
2023-01-06T06:52:21.531Z,4.70
2023-01-06T06:54:50.285Z,4.10
2023-01-06T06:57:17.801Z,4.40
2023-01-06T06:59:45.247Z,4.73
2023-01-06T07:02:12.819Z,4.63
2023-01-06T07:04:40.406Z,4.70
2023-01-06T07:07:08.034Z,4.50
2023-01-06T07:09:35.529Z,4.77
2023-01-06T07:12:06.598Z,4.97
2023-01-06T07:14:34.105Z,4.70
2023-01-06T07:17:03.280Z,4.63
2023-01-06T07:19:30.798Z,4.50
2023-01-06T07:21:58.217Z,4.50
2023-01-06T07:24:25.804Z,4.90
2023-01-06T07:26:53.283Z,5.00
2023-01-06T07:29:22.073Z,4.90
2023-01-06T07:31:49.493Z,4.97
2023-01-06T07:34:16.962Z,4.37
2023-01-06T07:36:44.426Z,5.20
2023-01-06T07:39:11.920Z,4.77
2023-01-06T07:41:39.357Z,4.30
2023-01-06T07:44:12.143Z,4.33
2023-01-06T07:46:41.140Z,4.80
2023-01-06T07:49:08.639Z,4.30
2023-01-06T07:51:36.099Z,4.73
2023-01-06T07:54:03.716Z,4.60
2023-01-06T07:56:31.225Z,4.33
2023-01-06T07:58:58.713Z,4.43
2023-01-06T08:01:26.279Z,4.60
2023-01-06T08:03:55.104Z,3.97
2023-01-06T08:06:22.529Z,4.33
2023-01-06T08:08:49.948Z,4.23
2023-01-06T08:11:17.426Z,4.00
2023-01-06T08:13:44.845Z,8.67
2023-01-06T08:16:12.381Z,7.57
2023-01-06T08:18:40.082Z,5.60
2023-01-06T08:21:09.701Z,4.93
2023-01-06T08:23:37.744Z,4.13
2023-01-06T08:26:06.047Z,4.60
2023-01-06T08:28:33.820Z,4.50
2023-01-06T08:31:01.626Z,5.60
2023-01-06T08:33:29.915Z,5.37
2023-01-06T08:35:59.352Z,5.70
2023-01-06T08:38:28.414Z,5.27
2023-01-06T08:40:56.628Z,5.87
2023-01-06T08:43:24.605Z,9.40
2023-01-06T08:45:52.076Z,10.93
2023-01-06T08:48:19.887Z,10.20
2023-01-06T08:50:47.349Z,11.67
2023-01-06T08:53:14.807Z,12.20
2023-01-06T08:55:43.816Z,11.50
2023-01-06T08:58:11.627Z,11.90
2023-01-06T09:00:40.658Z,10.87
2023-01-06T09:03:08.136Z,11.03
2023-01-06T09:05:35.653Z,11.00
2023-01-06T09:08:03.118Z,10.87
2023-01-06T09:10:30.601Z,9.20
2023-01-06T09:12:59.380Z,9.60
2023-01-06T09:15:26.793Z,9.27
2023-01-06T09:17:54.270Z,9.10
2023-01-06T09:20:21.792Z,9.10
2023-01-06T09:22:49.240Z,8.33
2023-01-06T09:25:16.859Z,8.87
2023-01-06T09:27:44.343Z,8.63
2023-01-06T09:30:14.268Z,9.17
2023-01-06T09:32:41.730Z,7.53
2023-01-06T09:35:09.790Z,8.37
2023-01-06T09:37:37.227Z,7.70
2023-01-06T09:40:05.183Z,7.47
2023-01-06T09:42:38.702Z,7.57
2023-01-06T09:45:07.682Z,6.57
2023-01-06T09:47:40.210Z,6.20
2023-01-06T09:50:09.697Z,6.37
2023-01-06T09:52:39.244Z,5.80
2023-01-06T09:55:09.110Z,5.37
2023-01-06T09:57:38.970Z,4.77
2023-01-06T10:00:08.802Z,5.03
2023-01-06T10:02:38.746Z,4.23
2023-01-06T10:05:19.084Z,4.17
2023-01-06T10:07:48.048Z,4.73
2023-01-06T10:10:22.177Z,4.03
2023-01-06T10:12:56.043Z,3.33
2023-01-06T10:15:30.531Z,3.83
2023-01-06T10:18:05.567Z,3.60
2023-01-06T10:20:50.817Z,4.10
2023-01-06T10:23:30.338Z,4.10
2023-01-06T10:26:04.527Z,4.57
2023-01-06T10:28:34.981Z,4.63
2023-01-06T10:31:04.065Z,4.23
2023-01-06T10:33:33.737Z,4.73
2023-01-06T10:36:01.623Z,4.70
2023-01-06T10:38:31.428Z,4.80
2023-01-06T10:41:03.326Z,4.53
2023-01-06T10:43:30.906Z,3.90
2023-01-06T10:45:58.391Z,4.10
2023-01-06T10:48:27.356Z,4.43
2023-01-06T10:50:57.173Z,2.60
2023-01-06T10:53:26.055Z,2.80
2023-01-06T10:55:54.769Z,2.40
2023-01-06T10:58:25.236Z,2.47
2023-01-06T11:00:56.858Z,2.47
2023-01-06T11:03:33.285Z,2.20
2023-01-06T11:06:04.324Z,3.40
2023-01-06T11:08:31.971Z,4.40
2023-01-06T11:10:59.505Z,5.00
2023-01-06T11:13:28.286Z,4.40
2023-01-06T11:15:56.276Z,4.43
2023-01-06T11:18:25.969Z,4.30
2023-01-06T11:21:05.632Z,4.33
2023-01-06T11:23:33.294Z,4.60
2023-01-06T11:26:01.862Z,5.00
2023-01-06T11:28:30.633Z,5.00
2023-01-06T11:31:01.545Z,4.30
2023-01-06T11:33:29.693Z,4.87
2023-01-06T11:35:57.358Z,4.30
2023-01-06T11:38:26.382Z,4.50
2023-01-06T11:40:54.574Z,3.30
2023-01-06T11:43:25.675Z,2.70
2023-01-06T11:45:55.675Z,3.03
2023-01-06T11:48:26.992Z,2.63
2023-01-06T11:50:55.461Z,2.57
2023-01-06T11:53:24.516Z,2.77
2023-01-06T11:56:02.230Z,2.60
2023-01-06T11:58:40.964Z,3.10
2023-01-06T12:01:10.163Z,2.90
2023-01-06T12:03:41.430Z,2.93
2023-01-06T12:06:15.747Z,2.70
2023-01-06T12:08:46.010Z,2.93
2023-01-06T12:11:17.687Z,3.10
2023-01-06T12:14:06.564Z,2.80
2023-01-06T12:16:36.344Z,2.70
2023-01-06T12:19:05.673Z,2.60
2023-01-06T12:21:36.582Z,2.57
2023-01-06T12:24:05.965Z,2.77
2023-01-06T12:26:35.950Z,2.50
2023-01-06T12:29:05.583Z,2.30
2023-01-06T12:31:40.716Z,1.93
2023-01-06T12:34:11.602Z,1.87
2023-01-06T12:36:41.534Z,2.03
2023-01-06T12:39:12.799Z,1.90
2023-01-06T12:41:43.870Z,1.93
2023-01-06T12:44:16.373Z,1.73
2023-01-06T12:46:46.087Z,1.40
2023-01-06T12:49:18.428Z,1.53
2023-01-06T12:51:47.200Z,1.43
2023-01-06T12:54:18.735Z,1.40
2023-01-06T12:56:58.194Z,1.50
2023-01-06T12:59:29.670Z,1.50
2023-01-06T13:01:59.219Z,1.80
2023-01-06T13:04:38.640Z,1.43
2023-01-06T13:07:14.453Z,1.30
2023-01-06T13:09:49.503Z,1.50
2023-01-06T13:12:30.703Z,1.50
2023-01-06T13:15:03.404Z,1.60
2023-01-06T13:17:35.771Z,1.67
2023-01-06T13:20:05.999Z,1.60
2023-01-06T13:22:40.680Z,1.30
2023-01-06T13:25:25.192Z,1.43
2023-01-06T13:27:58.873Z,1.40
2023-01-06T13:30:35.799Z,1.70
2023-01-06T13:33:12.686Z,1.57
2023-01-06T13:35:55.694Z,2.03
2023-01-06T13:38:38.053Z,1.80
2023-01-06T13:41:06.928Z,1.67
2023-01-06T13:43:36.115Z,1.67
2023-01-06T13:46:05.526Z,1.77
2023-01-06T13:48:34.466Z,1.80
2023-01-06T13:51:03.459Z,1.70
2023-01-06T13:53:36.931Z,1.77
2023-01-06T13:56:23.060Z,1.73
2023-01-06T13:58:52.136Z,1.50
2023-01-06T14:01:32.131Z,1.50
2023-01-06T14:04:28.703Z,1.30
2023-01-06T14:06:56.377Z,1.60
2023-01-06T14:09:23.815Z,1.47
2023-01-06T14:11:51.400Z,1.43
2023-01-06T14:14:25.122Z,1.70
2023-01-06T14:16:53.175Z,1.43
2023-01-06T14:19:22.110Z,1.60
2023-01-06T14:21:50.559Z,1.30
2023-01-06T14:24:27.974Z,1.40
2023-01-06T14:26:58.326Z,1.40
2023-01-06T14:29:44.842Z,1.00
2023-01-06T14:32:33.621Z,0.80
2023-01-06T14:35:02.706Z,1.00
2023-01-06T14:37:33.424Z,0.80
2023-01-06T14:40:01.950Z,1.00
2023-01-06T14:42:30.773Z,1.10
2023-01-06T14:44:59.488Z,1.10
2023-01-06T14:47:31.317Z,1.17
2023-01-06T14:50:00.626Z,1.10
2023-01-06T14:52:32.153Z,1.20
2023-01-06T14:55:00.243Z,0.90
2023-01-06T14:57:34.548Z,1.00
2023-01-06T15:00:06.024Z,1.00
2023-01-06T15:02:35.235Z,0.90
2023-01-06T15:05:02.907Z,0.90
2023-01-06T15:07:30.433Z,1.07
2023-01-06T15:10:14.218Z,0.90
2023-01-06T15:12:49.473Z,0.90
2023-01-06T15:15:24.427Z,0.80
2023-01-06T15:17:54.726Z,1.00
2023-01-06T15:20:23.149Z,1.30
2023-01-06T15:22:50.982Z,1.10
2023-01-06T15:25:22.621Z,1.23
2023-01-06T15:27:50.160Z,1.17
2023-01-06T15:30:19.035Z,1.10
2023-01-06T15:32:47.390Z,1.27
2023-01-06T15:35:18.832Z,1.13
2023-01-06T15:37:46.779Z,1.30
2023-01-06T15:40:18.345Z,1.10
2023-01-06T15:42:45.951Z,1.40
2023-01-06T15:45:23.418Z,1.40
2023-01-06T15:47:51.009Z,1.20
2023-01-06T15:50:22.187Z,1.23
2023-01-06T15:52:50.577Z,1.30
2023-01-06T15:55:23.768Z,1.13
2023-01-06T15:57:52.877Z,1.33
2023-01-06T16:00:22.422Z,1.30
2023-01-06T16:02:50.047Z,1.50
2023-01-06T16:05:34.939Z,1.20
2023-01-06T16:08:02.898Z,1.67
2023-01-06T16:10:31.383Z,1.33
2023-01-06T16:13:24.125Z,1.40
2023-01-06T16:15:52.939Z,1.50
2023-01-06T16:18:27.425Z,1.20
2023-01-06T16:20:56.835Z,1.30
2023-01-06T16:23:31.970Z,1.30
2023-01-06T16:26:04.128Z,1.30
2023-01-06T16:28:31.630Z,1.50
2023-01-06T16:31:06.806Z,1.37
2023-01-06T16:33:39.947Z,1.20
2023-01-06T16:36:13.394Z,1.20
2023-01-06T16:38:40.939Z,1.20
2023-01-06T16:41:08.534Z,1.20
2023-01-06T16:43:35.987Z,1.20
2023-01-06T16:46:10.293Z,1.20
2023-01-06T16:48:37.786Z,1.17
2023-01-06T16:51:08.879Z,1.13
2023-01-06T16:53:37.668Z,1.23
2023-01-06T16:56:07.255Z,0.90
2023-01-06T16:58:35.884Z,1.10
2023-01-06T17:01:09.559Z,1.10
2023-01-06T17:03:38.049Z,1.10
2023-01-06T17:06:10.444Z,1.10
2023-01-06T17:08:39.604Z,1.70
2023-01-06T17:11:11.917Z,1.40
2023-01-06T17:13:45.701Z,1.70
2023-01-06T17:16:15.415Z,1.87
2023-01-06T17:18:49.887Z,2.00
2023-01-06T17:21:18.205Z,2.17
2023-01-06T17:23:48.938Z,2.37
2023-01-06T17:26:17.177Z,2.43
2023-01-06T17:28:45.164Z,2.20
2023-01-06T17:31:15.210Z,2.50
2023-01-06T17:33:42.940Z,2.13
2023-01-06T17:36:18.426Z,2.23
2023-01-06T17:38:48.408Z,2.23
2023-01-06T17:41:16.664Z,2.20
2023-01-06T17:43:44.265Z,2.47
2023-01-06T17:46:17.456Z,2.80
2023-01-06T17:48:44.925Z,2.97
2023-01-06T17:51:13.005Z,2.73
2023-01-06T17:53:57.925Z,3.00
2023-01-06T17:56:27.045Z,3.10
2023-01-06T17:58:54.473Z,2.60
2023-01-06T18:01:23.312Z,2.60
2023-01-06T18:03:51.341Z,3.03
2023-01-06T18:06:26.875Z,2.90
2023-01-06T18:09:03.039Z,2.87
2023-01-06T18:11:32.993Z,2.90
2023-01-06T18:14:07.841Z,2.90
2023-01-06T18:16:36.093Z,2.90
2023-01-06T18:19:13.636Z,2.60
2023-01-06T18:21:41.343Z,2.53
2023-01-06T18:24:15.840Z,2.67
2023-01-06T18:26:47.529Z,2.87
2023-01-06T18:29:16.856Z,2.87
2023-01-06T18:31:45.087Z,3.30
2023-01-06T18:34:19.566Z,3.10
2023-01-06T18:36:49.523Z,2.93
2023-01-06T18:39:17.531Z,2.60
2023-01-06T18:41:46.546Z,2.80
2023-01-06T18:44:18.594Z,3.43
2023-01-06T18:46:46.132Z,3.30
2023-01-06T18:49:15.220Z,5.97
2023-01-06T18:51:42.721Z,4.47
2023-01-06T18:54:13.930Z,4.33
2023-01-06T18:56:41.432Z,4.53
2023-01-06T18:59:13.769Z,4.43
2023-01-06T19:01:42.415Z,3.90
2023-01-06T19:04:14.369Z,4.13
2023-01-06T19:06:43.157Z,3.77
2023-01-06T19:09:17.238Z,3.90
2023-01-06T19:11:45.052Z,3.77
2023-01-06T19:14:16.478Z,5.37
2023-01-06T19:16:48.213Z,4.70
2023-01-06T19:19:26.839Z,3.63
2023-01-06T19:21:58.017Z,3.70
2023-01-06T19:24:44.204Z,3.57
2023-01-06T19:27:24.419Z,4.17
2023-01-06T19:29:53.692Z,4.63
2023-01-06T19:32:22.107Z,5.00
2023-01-06T19:34:49.549Z,5.73
2023-01-06T19:37:18.225Z,5.17
2023-01-06T19:39:48.617Z,8.10
2023-01-06T19:42:18.489Z,7.77
2023-01-06T19:44:47.707Z,7.07
2023-01-06T19:47:19.565Z,8.10
2023-01-06T19:49:52.821Z,8.07
2023-01-06T19:52:27.590Z,6.73
2023-01-06T19:54:55.958Z,6.50
2023-01-06T19:57:25.878Z,5.13
2023-01-06T19:59:53.591Z,5.37
2023-01-06T20:02:26.447Z,2.90
2023-01-06T20:04:54.069Z,2.40
2023-01-06T20:07:21.516Z,2.57
2023-01-06T20:09:49.061Z,2.37
2023-01-06T20:12:16.567Z,2.27
2023-01-06T20:14:44.025Z,2.10
2023-01-06T20:17:11.653Z,2.40
2023-01-06T20:19:40.416Z,2.60
2023-01-06T20:22:07.845Z,3.03
2023-01-06T20:24:35.316Z,2.20
2023-01-06T20:27:02.851Z,2.23
2023-01-06T20:29:30.353Z,2.60
2023-01-06T20:31:57.934Z,2.40
2023-01-06T20:34:25.450Z,2.40
2023-01-06T20:36:54.365Z,2.47
2023-01-06T20:39:22.017Z,2.67
2023-01-06T20:41:49.491Z,2.40
2023-01-06T20:44:16.943Z,2.40
2023-01-06T20:46:44.406Z,2.80
2023-01-06T20:49:13.021Z,2.70
2023-01-06T20:51:40.457Z,2.80
2023-01-06T20:54:09.330Z,3.10
2023-01-06T20:56:36.811Z,3.10
2023-01-06T20:59:04.556Z,3.47
2023-01-06T21:01:32.152Z,3.10
2023-01-06T21:03:59.729Z,3.27
2023-01-06T21:06:27.184Z,3.10
2023-01-06T21:08:54.692Z,2.90
2023-01-06T21:11:23.480Z,3.17
2023-01-06T21:13:53.112Z,3.03
2023-01-06T21:16:21.621Z,2.90
2023-01-06T21:18:49.237Z,2.90
2023-01-06T21:21:17.119Z,2.80
2023-01-06T21:23:44.630Z,2.83
2023-01-06T21:26:12.088Z,2.93
2023-01-06T21:28:40.883Z,2.67
2023-01-06T21:31:08.365Z,2.70
2023-01-06T21:33:35.909Z,2.70
2023-01-06T21:36:03.345Z,2.80
2023-01-06T21:38:32.861Z,2.80
2023-01-06T21:41:25.379Z,2.90
2023-01-06T21:43:53.367Z,3.53
2023-01-06T21:46:20.846Z,4.00
2023-01-06T21:48:48.330Z,2.87
2023-01-06T21:51:15.800Z,3.17
2023-01-06T21:53:43.250Z,3.20
2023-01-06T21:56:10.918Z,3.10
2023-01-06T21:58:38.387Z,3.60
2023-01-06T22:01:07.478Z,3.37
2023-01-06T22:03:35.353Z,3.87
2023-01-06T22:06:03.333Z,3.90
2023-01-06T22:08:32.205Z,3.73
2023-01-06T22:10:59.855Z,3.80
2023-01-06T22:13:27.517Z,3.67
2023-01-06T22:15:55.080Z,3.47
2023-01-06T22:18:24.052Z,3.30
2023-01-06T22:20:51.842Z,3.03
2023-01-06T22:23:21.344Z,3.30
2023-01-06T22:25:48.943Z,3.10
2023-01-06T22:28:16.389Z,3.20
2023-01-06T22:30:44.192Z,3.00
2023-01-06T22:33:11.684Z,3.23
2023-01-06T22:35:40.461Z,3.17
2023-01-06T22:38:07.909Z,3.33
2023-01-06T22:40:35.355Z,3.30
2023-01-06T22:43:04.400Z,3.20
2023-01-06T22:45:31.891Z,3.17
2023-01-06T22:47:59.333Z,2.73
2023-01-06T22:50:26.813Z,3.20
2023-01-06T22:52:56.242Z,2.83
2023-01-06T22:55:24.062Z,3.00
2023-01-06T22:57:51.490Z,3.10
2023-01-06T23:00:19.510Z,3.10
2023-01-06T23:02:47.131Z,3.23
2023-01-06T23:05:14.727Z,3.23
2023-01-06T23:07:43.326Z,3.10
2023-01-06T23:10:14.066Z,2.83
2023-01-06T23:12:41.965Z,3.23
2023-01-06T23:15:10.149Z,3.00
2023-01-06T23:17:37.771Z,3.03
2023-01-06T23:20:05.574Z,3.20
2023-01-06T23:22:33.063Z,3.10
2023-01-06T23:25:00.730Z,3.43
2023-01-06T23:27:31.516Z,3.30
2023-01-06T23:29:59.400Z,3.20
2023-01-06T23:32:26.900Z,3.43
2023-01-06T23:34:54.346Z,4.07
2023-01-06T23:37:21.752Z,3.37
2023-01-06T23:39:49.233Z,4.07
2023-01-06T23:42:16.734Z,3.93
2023-01-06T23:44:45.524Z,3.77
2023-01-06T23:47:12.989Z,3.40
2023-01-06T23:49:40.444Z,3.40
2023-01-06T23:52:08.585Z,3.63
2023-01-06T23:54:36.017Z,4.73
2023-01-06T23:57:03.479Z,4.53
2023-01-06T23:59:30.933Z,4.40
